createdAt,value
2022-08-17T00:00:39.722Z,77.30
2022-08-17T00:03:18.698Z,77.30
2022-08-17T00:06:04.864Z,77.30
2022-08-17T00:08:40.700Z,77.70
2022-08-17T00:11:24.430Z,77.70
2022-08-17T00:13:57.729Z,77.70
2022-08-17T00:16:55.488Z,77.40
2022-08-17T00:19:24.634Z,77.10
2022-08-17T00:22:31.706Z,77.40
2022-08-17T00:24:44.435Z,77.50
2022-08-17T00:27:11.916Z,77.20
2022-08-17T00:29:39.575Z,77.80
2022-08-17T00:33:23.255Z,78.30
2022-08-17T00:34:54.981Z,78.20
2022-08-17T00:37:22.805Z,78.90
2022-08-17T00:39:50.524Z,78.90
2022-08-17T00:42:19.780Z,79.20
2022-08-17T00:44:47.456Z,79.00
2022-08-17T00:47:15.009Z,79.30
2022-08-17T00:49:42.532Z,79.30
2022-08-17T00:52:20.747Z,79.00
2022-08-17T00:54:52.635Z,78.90
2022-08-17T00:57:38.577Z,79.40
2022-08-17T01:00:26.894Z,79.90
2022-08-17T01:03:10.722Z,80.20
2022-08-17T01:05:42.391Z,80.80
2022-08-17T01:08:14.513Z,81.20
2022-08-17T01:10:59.457Z,81.50
2022-08-17T01:13:41.596Z,81.50
2022-08-17T01:16:21.282Z,81.30
2022-08-17T01:18:52.984Z,81.60
2022-08-17T01:21:55.860Z,82.00
2022-08-17T01:24:23.455Z,82.20
2022-08-17T01:26:51.153Z,82.30
2022-08-17T01:29:20.210Z,82.40
2022-08-17T01:31:58.902Z,82.70
2022-08-17T01:34:33.453Z,82.30
2022-08-17T01:37:12.273Z,82.50
2022-08-17T01:39:50.631Z,82.70
2022-08-17T01:42:52.293Z,82.00
2022-08-17T01:45:23.845Z,81.90
2022-08-17T01:47:54.051Z,81.90
2022-08-17T01:50:28.106Z,81.60
2022-08-17T01:53:35.557Z,82.00
2022-08-17T01:56:17.679Z,82.50
2022-08-17T01:58:45.894Z,82.60
2022-08-17T02:01:22.967Z,83.00
2022-08-17T02:03:56.245Z,82.80
2022-08-17T02:06:31.398Z,83.20
2022-08-17T02:09:16.613Z,82.90
2022-08-17T02:11:46.154Z,82.60
2022-08-17T02:14:15.113Z,82.50
2022-08-17T02:16:43.502Z,82.60
2022-08-17T02:19:15.978Z,82.70
2022-08-17T02:21:47.244Z,82.80
2022-08-17T02:24:59.732Z,83.20
2022-08-17T02:27:15.863Z,83.60
2022-08-17T02:29:43.351Z,83.60
2022-08-17T02:32:28.163Z,83.70
2022-08-17T02:35:00.723Z,84.00
2022-08-17T02:37:29.837Z,83.90
2022-08-17T02:39:59.837Z,84.00
2022-08-17T02:42:38.550Z,84.30
2022-08-17T02:45:11.456Z,84.60
2022-08-17T02:47:40.426Z,84.80
2022-08-17T02:50:10.409Z,84.80
2022-08-17T02:52:43.708Z,84.80
2022-08-17T02:55:26.099Z,84.80
2022-08-17T02:57:54.493Z,84.80
2022-08-17T03:00:34.701Z,85.10
2022-08-17T03:03:05.656Z,85.50
2022-08-17T03:05:35.767Z,85.70
2022-08-17T03:08:07.633Z,86.10
2022-08-17T03:10:41.502Z,86.20
2022-08-17T03:13:09.229Z,86.10
2022-08-17T03:15:36.985Z,85.70
2022-08-17T03:18:08.396Z,85.60
2022-08-17T03:20:46.908Z,85.60
2022-08-17T03:23:16.536Z,85.70
2022-08-17T03:25:46.720Z,85.30
2022-08-17T03:28:16.314Z,85.20
2022-08-17T03:30:44.164Z,85.00
2022-08-17T03:33:12.889Z,84.90
2022-08-17T03:35:41.810Z,85.00
2022-08-17T03:38:12.290Z,84.60
2022-08-17T03:40:57.104Z,84.80
2022-08-17T03:43:31.358Z,85.60
2022-08-17T03:46:27.644Z,85.10
2022-08-17T03:49:15.542Z,85.40
2022-08-17T03:52:02.791Z,84.80
2022-08-17T03:54:48.903Z,85.40
2022-08-17T03:57:16.958Z,85.90
2022-08-17T03:59:44.920Z,86.20
2022-08-17T04:02:34.218Z,86.10
2022-08-17T04:05:04.675Z,85.70
2022-08-17T04:07:32.557Z,85.40
2022-08-17T04:10:00.494Z,84.90
2022-08-17T04:12:32.280Z,85.10
2022-08-17T04:15:00.367Z,85.60
2022-08-17T04:17:29.686Z,85.80
2022-08-17T04:19:57.699Z,86.20
2022-08-17T04:22:30.226Z,86.30
2022-08-17T04:25:07.378Z,86.60
2022-08-17T04:27:35.124Z,86.80
2022-08-17T04:30:03.146Z,86.60
2022-08-17T04:33:03.605Z,86.60
2022-08-17T04:35:28.926Z,86.90
2022-08-17T04:37:58.558Z,86.90
2022-08-17T04:40:46.824Z,86.40
2022-08-17T04:43:19.959Z,86.30
2022-08-17T04:45:57.041Z,86.30
2022-08-17T04:48:35.447Z,86.40
2022-08-17T04:51:36.870Z,86.80
2022-08-17T04:54:11.521Z,87.20
2022-08-17T04:56:40.423Z,87.50
2022-08-17T05:01:42.600Z,86.90
2022-08-17T05:04:33.221Z,87.20
2022-08-17T05:07:04.583Z,87.00
2022-08-17T05:09:32.438Z,86.90
2022-08-17T05:12:03.671Z,86.80
2022-08-17T05:14:33.037Z,86.80
2022-08-17T05:17:07.040Z,86.80
2022-08-17T05:19:38.353Z,86.40
2022-08-17T05:22:07.033Z,86.40
2022-08-17T05:24:39.061Z,86.20
2022-08-17T05:27:17.843Z,86.20
2022-08-17T05:29:46.782Z,86.20
2022-08-17T05:32:47.897Z,86.40
2022-08-17T05:35:03.148Z,86.30
2022-08-17T05:37:30.690Z,86.10
2022-08-17T05:39:58.333Z,85.50
2022-08-17T05:42:25.946Z,85.70
2022-08-17T05:44:53.649Z,85.90
2022-08-17T05:47:24.053Z,85.30
2022-08-17T05:49:51.455Z,84.70
2022-08-17T05:52:53.427Z,84.60
2022-08-17T05:56:00.391Z,84.50
2022-08-17T05:59:03.485Z,84.50
2022-08-17T06:01:47.879Z,83.70
2022-08-17T06:05:10.337Z,83.50
2022-08-17T06:08:18.267Z,82.90
2022-08-17T06:11:07.329Z,80.60
2022-08-17T06:14:02.615Z,80.00
2022-08-17T06:16:43.961Z,78.90
2022-08-17T06:19:21.203Z,77.80
2022-08-17T06:21:54.161Z,77.50
2022-08-17T06:24:58.439Z,77.00
2022-08-17T06:27:43.288Z,76.20
2022-08-17T06:30:20.816Z,75.70
2022-08-17T06:32:53.015Z,73.60
2022-08-17T06:35:40.310Z,73.90
2022-08-17T06:38:37.031Z,72.10
2022-08-17T06:41:20.775Z,71.30
2022-08-17T06:44:47.575Z,69.80
2022-08-17T06:48:08.735Z,70.80
2022-08-17T06:50:55.789Z,70.10
2022-08-17T06:53:35.949Z,69.10
2022-08-17T06:56:14.841Z,68.80
2022-08-17T06:58:45.265Z,67.60
2022-08-17T07:01:29.416Z,67.20
2022-08-17T07:04:14.802Z,66.30
2022-08-17T07:07:29.078Z,65.30
2022-08-17T07:10:00.561Z,64.60
2022-08-17T07:12:38.735Z,63.80
2022-08-17T07:15:16.944Z,63.00
2022-08-17T07:17:48.421Z,62.10
2022-08-17T07:20:22.915Z,62.30
2022-08-17T07:23:27.540Z,61.40
2022-08-17T07:26:07.822Z,61.30
2022-08-17T07:28:37.321Z,61.70
2022-08-17T07:31:05.219Z,59.70
2022-08-17T07:33:36.987Z,58.90
2022-08-17T07:36:04.686Z,57.50
2022-08-17T07:38:37.053Z,56.10
2022-08-17T07:41:07.959Z,55.60
2022-08-17T07:43:41.429Z,56.60
2022-08-17T07:46:30.605Z,55.10
2022-08-17T07:49:24.371Z,54.70
2022-08-17T07:51:51.825Z,54.50
2022-08-17T07:54:22.774Z,54.60
2022-08-17T07:57:12.999Z,53.70
2022-08-17T08:00:01.121Z,55.40
2022-08-17T08:02:45.728Z,53.30
2022-08-17T08:05:49.656Z,51.90
2022-08-17T08:08:42.561Z,51.00
2022-08-17T08:11:17.075Z,49.10
2022-08-17T08:13:46.190Z,48.60
2022-08-17T08:16:31.905Z,48.10
2022-08-17T08:19:02.192Z,46.70
2022-08-17T08:21:47.427Z,47.50
2022-08-17T08:24:30.890Z,47.40
2022-08-17T08:27:20.817Z,46.30
2022-08-17T08:33:13.504Z,42.50
2022-08-17T08:35:53.855Z,42.30
2022-08-17T08:38:39.657Z,44.40
2022-08-17T08:41:17.101Z,44.80
2022-08-17T08:44:06.313Z,42.60
2022-08-17T08:47:23.249Z,43.10
2022-08-17T08:50:36.996Z,43.70
2022-08-17T08:53:19.298Z,43.70
2022-08-17T08:56:29.789Z,42.90
2022-08-17T08:59:17.145Z,41.10
2022-08-17T09:02:07.088Z,42.90
2022-08-17T09:05:18.323Z,41.60
2022-08-17T09:08:23.608Z,40.10
2022-08-17T09:11:06.432Z,39.80
2022-08-17T09:14:21.625Z,40.10
2022-08-17T09:17:12.891Z,41.40
2022-08-17T09:19:50.446Z,38.80
2022-08-17T09:22:55.652Z,38.80
2022-08-17T09:25:29.563Z,37.70
2022-08-17T09:28:20.614Z,37.70
2022-08-17T09:30:54.900Z,37.50
2022-08-17T09:33:27.381Z,37.50
2022-08-17T09:36:05.278Z,37.30
2022-08-17T09:39:36.909Z,38.30
2022-08-17T09:42:56.233Z,37.80
2022-08-17T09:45:42.909Z,37.00
2022-08-17T09:48:33.360Z,36.20
2022-08-17T09:51:22.781Z,36.30
2022-08-17T09:53:51.572Z,35.80
2022-08-17T09:56:39.135Z,36.10
2022-08-17T09:59:38.391Z,35.80
2022-08-17T10:02:54.797Z,34.80
2022-08-17T10:05:56.657Z,33.40
2022-08-17T10:09:08.632Z,33.60
2022-08-17T10:11:57.610Z,32.50
2022-08-17T10:14:37.268Z,32.40
2022-08-17T10:18:18.233Z,33.70
2022-08-17T10:25:22.303Z,31.90
2022-08-17T10:27:59.265Z,34.90
2022-08-17T10:30:33.007Z,34.90
2022-08-17T10:33:05.859Z,33.30
2022-08-17T10:35:44.959Z,32.40
2022-08-17T10:38:50.442Z,31.40
2022-08-17T10:41:46.006Z,31.60
2022-08-17T10:44:38.799Z,30.40
2022-08-17T10:47:15.720Z,33.70
2022-08-17T10:50:09.487Z,32.50
2022-08-17T10:52:42.923Z,30.20
2022-08-17T10:55:20.877Z,30.00
2022-08-17T10:57:50.602Z,28.60
2022-08-17T11:00:28.055Z,31.50
2022-08-17T11:02:58.309Z,30.40
2022-08-17T11:05:44.106Z,29.90
2022-08-17T11:08:46.116Z,29.20
2022-08-17T11:11:52.021Z,32.30
2022-08-17T11:14:51.526Z,28.80
2022-08-17T11:17:41.664Z,28.80
2022-08-17T11:20:54.881Z,29.10
2022-08-17T11:23:52.679Z,29.00
2022-08-17T11:26:36.444Z,28.80
2022-08-17T11:29:17.578Z,30.00
2022-08-17T11:32:04.837Z,27.90
2022-08-17T11:34:33.752Z,58.90
2022-08-17T11:37:24.826Z,29.20
2022-08-17T11:40:17.539Z,31.20
2022-08-17T11:45:53.196Z,28.50
2022-08-17T11:49:08.056Z,27.20
2022-08-17T11:57:26.517Z,53.00
2022-08-17T12:00:11.786Z,28.80
2022-08-17T12:02:48.312Z,28.50
2022-08-17T12:05:23.297Z,29.40
2022-08-17T12:08:15.650Z,29.50
2022-08-17T12:10:58.996Z,28.60
2022-08-17T12:13:35.190Z,28.30
2022-08-17T12:16:07.502Z,28.10
2022-08-17T12:18:39.766Z,27.50
2022-08-17T12:21:24.873Z,27.30
2022-08-17T12:24:06.885Z,28.10
2022-08-17T12:26:37.189Z,29.20
2022-08-17T12:32:04.846Z,29.00
2022-08-17T12:34:42.324Z,29.70
2022-08-17T12:37:25.252Z,28.10
2022-08-17T12:40:16.715Z,28.40
2022-08-17T12:43:03.093Z,28.80
2022-08-17T12:45:39.935Z,28.40
2022-08-17T12:48:19.799Z,26.80
2022-08-17T12:50:47.595Z,27.50
2022-08-17T12:53:27.618Z,27.60
2022-08-17T12:55:57.120Z,28.90
2022-08-17T12:58:28.704Z,27.50
2022-08-17T13:01:02.801Z,27.50
2022-08-17T13:03:40.969Z,27.50
2022-08-17T13:06:14.604Z,27.90
2022-08-17T13:08:48.309Z,27.40
2022-08-17T13:11:17.741Z,27.70
2022-08-17T13:13:51.962Z,28.40
2022-08-17T13:16:26.878Z,28.80
2022-08-17T13:19:15.260Z,28.90
2022-08-17T13:22:01.976Z,28.90
2022-08-17T13:24:38.053Z,28.60
2022-08-17T13:27:10.814Z,28.30
2022-08-17T13:29:51.445Z,28.90
2022-08-17T13:32:46.766Z,27.70
2022-08-17T13:35:49.905Z,29.40
2022-08-17T13:38:51.206Z,29.30
2022-08-17T13:41:37.593Z,28.30
2022-08-17T13:44:33.946Z,27.50
2022-08-17T13:47:04.182Z,28.20
2022-08-17T13:49:41.032Z,29.10
2022-08-17T13:52:40.771Z,29.60
2022-08-17T13:55:20.180Z,30.20
2022-08-17T13:58:06.591Z,29.40
2022-08-17T14:00:39.570Z,30.30
2022-08-17T14:03:07.241Z,29.60
2022-08-17T14:05:38.271Z,30.50
2022-08-17T14:08:06.915Z,30.20
2022-08-17T14:10:36.805Z,30.30
2022-08-17T14:13:06.194Z,30.70
2022-08-17T14:15:55.725Z,32.10
2022-08-17T14:18:37.520Z,32.30
2022-08-17T14:21:17.779Z,33.00
2022-08-17T14:23:54.327Z,31.80
2022-08-17T14:26:23.204Z,31.50
2022-08-17T14:28:56.376Z,33.00
2022-08-17T14:31:25.296Z,33.10
2022-08-17T14:33:53.886Z,31.90
2022-08-17T14:36:21.862Z,32.00
2022-08-17T14:38:49.544Z,31.50
2022-08-17T14:41:22.044Z,31.80
2022-08-17T14:43:53.181Z,32.10
2022-08-17T15:06:18.067Z,33.20
2022-08-17T15:08:45.739Z,34.20
2022-08-17T15:11:14.573Z,33.60
2022-08-17T15:13:52.037Z,33.90
2022-08-17T15:16:20.788Z,34.10
2022-08-17T15:18:49.319Z,34.70
2022-08-17T15:21:17.084Z,35.10
2022-08-17T15:23:45.206Z,35.00
2022-08-17T15:26:13.061Z,35.10
2022-08-17T15:28:40.761Z,35.20
2022-08-17T15:31:08.499Z,35.10
2022-08-17T15:33:36.411Z,35.30
2022-08-17T15:36:07.292Z,34.70
2022-08-17T15:38:39.993Z,34.40
2022-08-17T15:41:18.153Z,35.10
2022-08-17T15:43:52.782Z,34.80
2022-08-17T15:46:25.792Z,34.70
2022-08-17T15:49:00.634Z,34.00
2022-08-17T15:51:34.464Z,34.90
2022-08-17T15:54:18.712Z,34.50
2022-08-17T15:56:47.229Z,35.10
2022-08-17T15:59:15.910Z,34.40
2022-08-17T16:02:21.575Z,34.40
2022-08-17T16:04:32.076Z,34.80
2022-08-17T16:07:00.926Z,34.90
2022-08-17T16:09:28.761Z,35.80
2022-08-17T16:11:56.717Z,36.40
2022-08-17T16:14:28.881Z,36.10
2022-08-17T16:17:01.404Z,36.70
2022-08-17T16:19:29.032Z,36.90
2022-08-17T16:21:56.746Z,37.70
2022-08-17T16:24:24.404Z,38.50
2022-08-17T16:26:52.285Z,38.70
2022-08-17T16:29:21.627Z,39.40
2022-08-17T16:31:50.017Z,39.40
2022-08-17T16:34:19.161Z,38.80
2022-08-17T16:36:55.796Z,38.70
2022-08-17T16:39:29.429Z,37.50
2022-08-17T16:41:57.953Z,37.20
2022-08-17T16:44:29.177Z,37.00
2022-08-17T16:47:01.237Z,37.50
2022-08-17T16:49:36.585Z,37.50
2022-08-17T16:52:10.896Z,36.50
2022-08-17T16:54:44.453Z,36.90
2022-08-17T16:57:14.360Z,37.60
2022-08-17T16:59:44.936Z,38.00
2022-08-17T17:02:33.464Z,38.30
2022-08-17T17:05:42.815Z,38.50
2022-08-17T17:08:28.813Z,39.70
2022-08-17T17:10:58.443Z,39.90
2022-08-17T17:13:59.833Z,40.00
2022-08-17T17:16:59.530Z,40.40
2022-08-17T17:19:41.379Z,40.90
2022-08-17T17:22:35.581Z,40.90
2022-08-17T17:25:34.427Z,40.90
2022-08-17T17:28:28.617Z,40.90
2022-08-17T17:31:13.524Z,41.00
2022-08-17T17:33:50.744Z,41.00
2022-08-17T17:36:27.327Z,41.50
2022-08-17T17:39:16.271Z,41.30
2022-08-17T17:41:57.869Z,41.40
2022-08-17T17:44:33.838Z,41.40
2022-08-17T17:47:03.716Z,41.40
2022-08-17T17:49:45.577Z,41.80
2022-08-17T17:52:47.763Z,41.90
2022-08-17T17:55:37.455Z,41.90
2022-08-17T17:58:14.018Z,42.10
2022-08-17T18:01:23.728Z,42.70
2022-08-17T18:04:00.797Z,43.00
2022-08-17T18:18:38.120Z,45.50
2022-08-17T18:21:22.793Z,46.30
2022-08-17T18:24:02.080Z,46.90
2022-08-17T18:26:45.856Z,47.30
2022-08-17T18:29:30.536Z,47.80
2022-08-17T18:32:18.900Z,47.90
2022-08-17T18:34:50.913Z,48.10
2022-08-17T18:37:40.630Z,48.80
2022-08-17T18:40:17.491Z,49.20
2022-08-17T18:43:03.266Z,50.20
2022-08-17T18:45:50.929Z,50.50
2022-08-17T18:48:26.779Z,51.00
2022-08-17T18:51:18.689Z,52.00
2022-08-17T18:53:46.629Z,52.00
2022-08-17T18:56:23.152Z,52.30
2022-08-17T18:59:17.401Z,52.60
2022-08-17T19:02:03.202Z,54.50
2022-08-17T19:05:04.821Z,54.20
2022-08-17T19:07:46.447Z,55.20
2022-08-17T19:10:20.323Z,55.30
2022-08-17T19:13:00.732Z,55.40
2022-08-17T19:15:35.796Z,56.20
2022-08-17T19:18:22.859Z,55.70
2022-08-17T19:21:15.454Z,55.90
2022-08-17T19:23:54.706Z,57.70
2022-08-17T19:26:53.978Z,58.40
2022-08-17T19:30:11.732Z,58.40
2022-08-17T19:32:41.022Z,58.40
2022-08-17T19:35:16.632Z,59.60
2022-08-17T19:37:55.133Z,60.20
2022-08-17T19:40:53.953Z,60.60
2022-08-17T19:43:48.721Z,61.20
2022-08-17T19:46:20.259Z,61.40
2022-08-17T19:49:12.114Z,61.20
2022-08-17T19:52:30.030Z,62.00
2022-08-17T19:55:07.377Z,61.90
2022-08-17T19:58:05.455Z,62.60
2022-08-17T20:00:41.648Z,63.00
2022-08-17T20:03:22.341Z,64.00
2022-08-17T20:06:12.602Z,64.30
2022-08-17T20:08:59.134Z,64.20
2022-08-17T20:11:55.659Z,64.00
